Time;durP1;ratioP1;P1;durP2;ratioP2;P2;SDS_P1;SDS_P2;PMS_P1;PMS_P2;Temp;Humidity;BMP_temperature;BMP_pressure;BME280_temperature;BME280_humidity;BME280_pressure;Samples;Min_cycle;Max_cycle;Signal;HPM_P1;HPM_P2
2020/12/17 00:02:14;;;;;;;9.70;5.53;;;10.60;99.90;;;;;;5054594;28;20223;-83
2020/12/17 00:04:40;;;;;;;12.70;5.93;;;10.60;99.90;;;;;;5054812;28;20203;-84
2020/12/17 00:07:07;;;;;;;6.43;4.28;;;10.70;99.90;;;;;;5054499;28;20192;-84
2020/12/17 00:09:34;;;;;;;6.10;5.40;;;10.60;99.90;;;;;;5054787;28;20596;-86
2020/12/17 00:12:00;;;;;;;8.40;5.82;;;10.70;99.90;;;;;;5062817;28;20192;-85
2020/12/17 00:14:26;;;;;;;7.43;4.70;;;10.70;99.90;;;;;;5054608;28;20180;-84
2020/12/17 00:16:52;;;;;;;9.32;4.85;;;10.80;99.90;;;;;;5054393;28;20210;-85
2020/12/17 00:19:18;;;;;;;7.57;4.95;;;10.80;99.90;;;;;;5054563;28;20560;-84
2020/12/17 00:21:45;;;;;;;6.97;4.43;;;10.80;99.90;;;;;;5054345;28;20191;-85
2020/12/17 00:24:11;;;;;;;6.43;5.00;;;10.80;99.90;;;;;;5054696;28;20556;-85
2020/12/17 00:26:38;;;;;;;7.40;5.20;;;10.80;99.90;;;;;;5054848;28;20191;-84
2020/12/17 00:29:04;;;;;;;8.07;5.00;;;10.90;99.90;;;;;;5054473;28;20659;-83
2020/12/17 00:31:30;;;;;;;8.57;4.97;;;10.90;99.90;;;;;;5054706;28;20197;-84
2020/12/17 00:33:56;;;;;;;6.97;5.38;;;10.90;99.90;;;;;;5053945;28;20184;-83
2020/12/17 00:36:23;;;;;;;6.15;4.20;;;10.80;99.90;;;;;;5054329;28;20181;-84
2020/12/17 00:38:50;;;;;;;5.65;4.80;;;10.90;99.90;;;;;;5053848;28;20196;-84
2020/12/17 00:41:17;;;;;;;6.38;5.10;;;10.90;99.90;;;;;;5054122;28;20184;-83
2020/12/17 00:43:45;;;;;;;7.53;3.92;;;10.90;99.90;;;;;;5054148;28;20565;-84
2020/12/17 00:46:12;;;;;;;6.30;4.68;;;10.90;99.90;;;;;;5053783;28;20191;-85
2020/12/17 00:48:39;;;;;;;7.40;5.05;;;10.90;99.90;;;;;;5053810;28;20217;-85
2020/12/17 00:51:05;;;;;;;6.93;4.70;;;10.90;99.90;;;;;;5054175;28;20297;-85
2020/12/17 00:53:31;;;;;;;6.55;4.97;;;10.90;99.90;;;;;;5053528;28;20212;-85
2020/12/17 00:55:57;;;;;;;8.48;4.47;;;10.90;99.90;;;;;;5053414;28;20535;-85
2020/12/17 00:58:24;;;;;;;7.70;4.40;;;10.80;99.90;;;;;;5053680;28;20238;-85
2020/12/17 01:00:51;;;;;;;5.53;4.65;;;10.80;99.90;;;;;;5053659;28;20185;-83
2020/12/17 01:03:17;;;;;;;9.15;5.38;;;10.80;99.90;;;;;;5053843;28;20254;-85
2020/12/17 01:05:44;;;;;;;5.13;4.53;;;10.80;99.90;;;;;;5053332;28;20176;-85
2020/12/17 01:08:10;;;;;;;6.57;5.13;;;10.70;99.90;;;;;;5053290;28;20544;-85
2020/12/17 01:10:36;;;;;;;9.13;5.13;;;10.70;99.90;;;;;;5054453;28;20247;-83
2020/12/17 01:13:03;;;;;;;6.32;4.40;;;10.60;99.90;;;;;;5053358;28;20199;-84
2020/12/17 01:15:29;;;;;;;6.00;3.92;;;10.50;99.90;;;;;;5053333;28;20192;-84
2020/12/17 01:17:56;;;;;;;6.38;3.75;;;10.40;99.90;;;;;;5059950;28;20191;-83
2020/12/17 01:20:22;;;;;;;7.50;4.75;;;10.50;99.90;;;;;;5053497;28;20207;-84
2020/12/17 01:22:53;;;;;;;7.03;5.20;;;10.50;99.90;;;;;;5060845;28;20233;-84
2020/12/17 01:25:19;;;;;;;5.57;4.10;;;10.50;99.90;;;;;;5059988;28;20275;-84
2020/12/17 01:27:45;;;;;;;6.05;4.43;;;10.50;99.90;;;;;;5053488;28;20184;-83
2020/12/17 01:30:11;;;;;;;8.23;4.38;;;10.50;99.90;;;;;;5067939;28;20226;-84
2020/12/17 01:32:38;;;;;;;5.35;4.80;;;10.50;99.90;;;;;;5067711;28;20176;-84
2020/12/17 01:35:05;;;;;;;4.50;3.50;;;10.60;99.90;;;;;;5053284;28;20188;-83
2020/12/17 01:37:32;;;;;;;4.25;3.53;;;10.60;99.90;;;;;;5053471;28;20256;-85
2020/12/17 01:39:59;;;;;;;5.30;3.90;;;10.70;99.90;;;;;;5053598;28;20181;-84
2020/12/17 01:42:25;;;;;;;4.80;4.03;;;10.80;99.90;;;;;;5054353;28;20191;-85
2020/12/17 01:44:51;;;;;;;6.00;4.57;;;10.80;99.90;;;;;;5072866;28;20209;-85
2020/12/17 01:47:18;;;;;;;4.57;3.90;;;10.80;99.90;;;;;;5067516;28;20195;-85
2020/12/17 01:49:46;;;;;;;5.82;4.15;;;10.80;99.90;;;;;;5055920;28;20693;-84
2020/12/17 01:52:13;;;;;;;7.68;3.10;;;10.80;99.90;;;;;;5058052;28;20579;-84
2020/12/17 01:54:40;;;;;;;5.10;3.70;;;10.90;99.90;;;;;;5053287;28;20192;-85
2020/12/17 01:57:09;;;;;;;10.65;5.03;;;10.90;99.90;;;;;;5053500;28;20185;-84
2020/12/17 01:59:46;;;;;;;5.50;3.47;;;11.00;99.90;;;;;;5067899;28;20198;-86
2020/12/17 02:02:15;;;;;;;6.43;4.43;;;10.90;99.90;;;;;;5056948;28;20222;-83
2020/12/17 02:04:42;;;;;;;6.85;3.90;;;11.00;99.90;;;;;;5054767;28;20180;-84
2020/12/17 02:07:08;;;;;;;4.45;3.60;;;10.80;99.90;;;;;;5052983;28;20192;-83
2020/12/17 02:09:35;;;;;;;6.97;4.22;;;10.90;99.90;;;;;;5057036;28;20216;-84
2020/12/17 02:12:01;;;;;;;10.45;3.90;;;10.80;99.90;;;;;;5069639;28;20188;-84
2020/12/17 02:14:28;;;;;;;4.47;4.03;;;10.80;99.90;;;;;;5052883;28;20192;-84
2020/12/17 02:16:55;;;;;;;6.47;4.28;;;10.80;99.90;;;;;;5062606;28;20199;-84
2020/12/17 02:19:21;;;;;;;5.10;4.10;;;10.90;99.90;;;;;;5069683;28;20690;-83
2020/12/17 02:21:49;;;;;;;5.28;3.67;;;10.90;99.90;;;;;;5052795;28;20188;-83
2020/12/17 02:24:19;;;;;;;8.10;3.97;;;10.90;99.90;;;;;;5072127;28;20195;-83
2020/12/17 02:26:45;;;;;;;4.35;3.67;;;10.80;99.90;;;;;;5069166;28;20234;-85
2020/12/17 02:29:11;;;;;;;5.63;3.60;;;10.80;99.90;;;;;;5067292;28;20203;-82
2020/12/17 02:31:38;;;;;;;5.57;4.22;;;10.80;99.90;;;;;;5052668;28;20238;-84
2020/12/17 02:47:33;;;;;;;6.30;4.45;;;10.50;99.90;;;;;;5056579;28;20195;-83
2020/12/17 02:49:59;;;;;;;4.75;3.60;;;10.50;99.90;;;;;;5070299;28;20289;-84
2020/12/17 02:52:26;;;;;;;7.65;3.42;;;10.50;99.90;;;;;;5059488;28;20647;-83
2020/12/17 02:54:52;;;;;;;5.68;3.75;;;10.50;99.90;;;;;;5075444;28;20233;-84
2020/12/17 02:57:18;;;;;;;6.57;3.72;;;10.50;99.90;;;;;;5076956;28;20191;-84
2020/12/17 02:59:44;;;;;;;6.20;4.25;;;10.50;99.90;;;;;;5062631;28;20217;-84
2020/12/17 03:02:11;;;;;;;6.90;4.93;;;10.50;99.90;;;;;;5055858;28;20220;-84
2020/12/17 03:04:38;;;;;;;4.25;3.65;;;10.50;99.90;;;;;;5055896;28;20188;-84
2020/12/17 03:07:04;;;;;;;6.78;4.72;;;10.60;99.90;;;;;;5057384;28;20180;-84
2020/12/17 03:09:30;;;;;;;8.25;4.20;;;10.70;99.90;;;;;;5061724;28;20215;-83
2020/12/17 03:11:56;;;;;;;5.40;4.00;;;10.70;99.90;;;;;;5055526;28;20188;-84
2020/12/17 03:14:22;;;;;;;5.22;3.47;;;10.70;99.90;;;;;;5055559;28;20189;-84
2020/12/17 03:16:49;;;;;;;6.05;3.83;;;10.70;99.90;;;;;;5055859;28;20663;-84
2020/12/17 03:19:15;;;;;;;4.72;3.53;;;10.80;99.90;;;;;;5059649;28;20192;-84
2020/12/17 03:21:42;;;;;;;4.50;3.65;;;10.80;99.90;;;;;;5055007;28;20587;-83
2020/12/17 03:24:09;;;;;;;4.95;3.95;;;10.80;99.90;;;;;;5067401;28;20317;-84
2020/12/17 03:26:35;;;;;;;4.93;3.97;;;10.80;99.90;;;;;;5055169;28;20648;-83
2020/12/17 03:29:01;;;;;;;5.85;4.97;;;10.80;99.90;;;;;;5054908;28;20557;-83
2020/12/17 03:31:28;;;;;;;6.53;4.10;;;10.90;99.90;;;;;;5061410;28;20185;-83
2020/12/17 03:33:54;;;;;;;4.57;4.18;;;10.90;99.90;;;;;;5071725;28;20197;-84
2020/12/17 03:36:20;;;;;;;5.68;3.70;;;10.80;99.90;;;;;;5054930;28;20185;-83
2020/12/17 03:38:47;;;;;;;6.00;4.15;;;10.80;99.90;;;;;;5064148;28;20199;-84
2020/12/17 03:41:13;;;;;;;6.30;3.97;;;10.80;99.90;;;;;;5054614;28;21334;-84
2020/12/17 03:43:40;;;;;;;5.13;3.72;;;10.80;99.90;;;;;;5055016;28;20267;-84
2020/12/17 03:46:06;;;;;;;4.25;3.40;;;10.80;99.90;;;;;;5054004;28;20233;-84
2020/12/17 03:48:32;;;;;;;5.80;3.80;;;10.70;99.90;;;;;;5055045;28;20184;-84
2020/12/17 03:50:58;;;;;;;4.68;3.50;;;10.70;99.90;;;;;;5054630;28;20655;-83
2020/12/17 03:53:25;;;;;;;5.57;3.78;;;10.70;99.90;;;;;;5054774;28;20192;-83
2020/12/17 03:55:52;;;;;;;4.50;3.55;;;10.60;99.90;;;;;;5054564;28;20180;-83
2020/12/17 03:58:18;;;;;;;9.68;4.32;;;10.60;99.90;;;;;;5057187;28;20220;-83
2020/12/17 04:00:44;;;;;;;8.38;3.60;;;10.60;99.90;;;;;;5054106;28;20192;-84
2020/12/17 04:03:10;;;;;;;4.75;3.90;;;10.60;99.90;;;;;;5054510;28;20192;-83
2020/12/17 04:05:37;;;;;;;5.15;4.40;;;10.60;99.90;;;;;;5064206;28;20644;-84
2020/12/17 04:08:03;;;;;;;5.25;4.72;;;10.60;99.90;;;;;;5054295;28;20188;-84
2020/12/17 04:10:29;;;;;;;6.82;4.00;;;10.70;99.90;;;;;;5054530;28;20217;-83
2020/12/17 04:12:56;;;;;;;6.03;4.40;;;10.70;99.90;;;;;;5054513;28;20192;-83
2020/12/17 04:15:22;;;;;;;6.60;4.10;;;10.70;99.90;;;;;;5065024;28;20204;-84
2020/12/17 04:17:48;;;;;;;6.32;4.32;;;10.70;99.90;;;;;;5056134;28;20848;-84
2020/12/17 04:20:15;;;;;;;5.32;4.25;;;10.70;99.90;;;;;;5054470;28;20184;-83
2020/12/17 04:22:41;;;;;;;5.03;4.35;;;10.70;99.90;;;;;;5054135;28;20184;-84
2020/12/17 04:25:07;;;;;;;7.07;3.95;;;10.70;99.90;;;;;;5054105;28;20659;-84
2020/12/17 04:27:33;;;;;;;4.85;4.22;;;10.70;99.90;;;;;;5054954;28;20192;-84
2020/12/17 04:30:00;;;;;;;5.82;4.47;;;10.60;99.90;;;;;;5053976;28;20291;-84
2020/12/17 04:32:28;;;;;;;6.95;4.47;;;10.60;99.90;;;;;;5053842;28;20670;-84
2020/12/17 04:34:54;;;;;;;7.18;4.72;;;10.60;99.90;;;;;;5053748;28;20223;-84
2020/12/17 04:37:20;;;;;;;4.72;4.20;;;10.50;99.90;;;;;;5055742;28;20188;-84
2020/12/17 04:39:46;;;;;;;6.05;4.20;;;10.50;99.90;;;;;;5054638;28;20180;-85
2020/12/17 04:42:13;;;;;;;10.10;4.38;;;10.60;99.90;;;;;;5053843;28;20188;-83
2020/12/17 04:44:43;;;;;;;8.70;5.70;;;10.60;99.90;;;;;;5053671;28;20184;-83
2020/12/17 04:47:12;;;;;;;7.55;4.97;;;10.60;99.90;;;;;;5053653;28;20614;-84
2020/12/17 04:49:40;;;;;;;5.07;4.35;;;10.60;99.90;;;;;;5053482;28;20215;-82
2020/12/17 04:52:07;;;;;;;6.07;4.60;;;10.60;99.90;;;;;;5053457;28;20196;-83
2020/12/17 04:54:34;;;;;;;6.03;4.82;;;10.50;99.90;;;;;;5053619;28;20552;-83
2020/12/17 04:57:08;;;;;;;6.93;4.30;;;10.60;99.90;;;;;;5053675;28;20187;-84
2020/12/17 04:59:43;;;;;;;5.28;4.38;;;10.60;99.90;;;;;;5053481;28;20183;-83
2020/12/17 05:02:10;;;;;;;6.43;4.40;;;10.60;99.90;;;;;;5053402;28;20691;-83
2020/12/17 05:04:39;;;;;;;9.05;4.45;;;10.60;99.90;;;;;;5056470;28;20194;-83
2020/12/17 05:07:07;;;;;;;6.30;4.68;;;10.60;99.90;;;;;;5056551;28;20196;-83
2020/12/17 05:09:34;;;;;;;6.15;4.40;;;10.50;99.90;;;;;;5056825;28;20208;-83
2020/12/17 05:12:00;;;;;;;6.75;4.40;;;10.50;99.90;;;;;;5053125;28;20180;-83
2020/12/17 05:14:28;;;;;;;5.50;3.92;;;10.50;99.90;;;;;;5052793;28;20189;-83
2020/12/17 05:16:54;;;;;;;6.30;5.45;;;10.50;99.90;;;;;;5065198;28;20184;-82
2020/12/17 05:19:22;;;;;;;6.50;4.40;;;10.50;99.90;;;;;;5053199;28;20188;-82
2020/12/17 05:21:48;;;;;;;4.85;4.10;;;10.50;99.90;;;;;;5053164;28;20263;-84
2020/12/17 05:24:15;;;;;;;5.32;4.47;;;10.50;99.90;;;;;;5053039;28;20254;-84
2020/12/17 05:26:42;;;;;;;6.68;5.82;;;10.60;99.90;;;;;;5052913;28;20191;-84
2020/12/17 05:29:08;;;;;;;5.43;4.03;;;10.50;99.90;;;;;;5053260;28;20200;-84
2020/12/17 05:31:34;;;;;;;10.27;5.10;;;10.60;99.90;;;;;;5053458;28;20195;-83
2020/12/17 05:34:03;;;;;;;6.10;4.53;;;10.60;99.90;;;;;;5054910;28;20176;-83
2020/12/17 05:36:31;;;;;;;6.35;4.05;;;10.60;99.90;;;;;;5054526;28;20266;-84
2020/12/17 05:39:05;;;;;;;5.85;4.88;;;10.60;99.90;;;;;;5053909;28;20184;-84
2020/12/17 05:41:33;;;;;;;5.40;4.03;;;10.50;99.90;;;;;;5053761;28;20184;-84
2020/12/17 05:44:08;;;;;;;5.78;5.00;;;10.50;99.90;;;;;;5053295;28;20192;-84
2020/12/17 05:46:36;;;;;;;4.97;4.20;;;10.50;99.90;;;;;;5053262;28;20192;-83
2020/12/17 05:49:10;;;;;;;4.93;4.20;;;10.60;99.90;;;;;;5052866;28;20215;-83
2020/12/17 05:51:37;;;;;;;7.32;4.43;;;10.50;99.90;;;;;;5053594;28;20640;-83
2020/12/17 05:54:04;;;;;;;5.55;4.25;;;10.50;99.90;;;;;;5052931;28;20191;-84
2020/12/17 05:56:31;;;;;;;6.25;4.45;;;10.60;99.90;;;;;;5069411;28;20183;-85
2020/12/17 05:59:04;;;;;;;4.85;4.00;;;10.50;99.90;;;;;;5060269;28;20719;-85
2020/12/17 06:01:31;;;;;;;6.93;4.68;;;10.50;99.90;;;;;;5055124;28;20248;-85
2020/12/17 06:03:57;;;;;;;6.35;5.45;;;10.50;99.90;;;;;;5056175;28;20200;-85
2020/12/17 06:06:24;;;;;;;10.52;5.75;;;10.50;99.90;;;;;;5052999;28;20644;-85
2020/12/17 06:08:53;;;;;;;6.63;4.53;;;10.50;99.90;;;;;;5054746;28;20184;-85
2020/12/17 06:11:22;;;;;;;6.25;3.90;;;10.50;99.90;;;;;;5059582;28;20231;-84
2020/12/17 06:13:55;;;;;;;8.90;5.10;;;10.50;99.90;;;;;;5059563;28;20180;-86
2020/12/17 06:16:22;;;;;;;6.60;5.38;;;10.40;99.90;;;;;;5071072;28;20539;-87
2020/12/17 06:18:55;;;;;;;5.22;4.30;;;10.40;99.90;;;;;;5058531;28;20192;-87
2020/12/17 06:21:24;;;;;;;6.55;4.68;;;10.30;99.90;;;;;;5057511;28;20196;-87
2020/12/17 06:23:55;;;;;;;6.63;4.65;;;10.20;99.90;;;;;;5057301;28;20628;-85
2020/12/17 06:26:23;;;;;;;6.45;5.30;;;10.20;99.90;;;;;;5059541;28;20184;-85
2020/12/17 06:28:51;;;;;;;7.82;5.60;;;10.20;99.90;;;;;;5064116;28;20662;-85
2020/12/17 06:31:19;;;;;;;7.55;5.00;;;10.20;99.90;;;;;;5066527;28;20183;-85
2020/12/17 06:33:46;;;;;;;12.10;5.25;;;10.20;99.90;;;;;;5077398;28;20194;-85
2020/12/17 06:36:21;;;;;;;9.80;5.20;;;10.10;99.90;;;;;;5073925;28;20651;-84
2020/12/17 06:38:48;;;;;;;7.65;5.68;;;10.00;99.90;;;;;;5058418;28;20184;-83
2020/12/17 06:41:18;;;;;;;8.75;5.18;;;10.00;99.90;;;;;;5071556;28;20210;-85
2020/12/17 06:43:45;;;;;;;8.43;5.30;;;10.00;99.90;;;;;;5065898;28;20640;-84
2020/12/17 06:46:33;;;;;;;8.90;5.30;;;10.00;99.90;;;;;;5062177;28;20191;-85
2020/12/17 06:49:00;;;;;;;10.70;7.05;;;9.90;99.90;;;;;;5065897;28;20200;-87
2020/12/17 06:51:32;;;;;;;7.43;6.22;;;9.90;99.90;;;;;;5057732;28;20184;-85
2020/12/17 06:53:59;;;;;;;8.70;7.53;;;9.80;99.90;;;;;;5056445;28;20188;-85
2020/12/17 06:56:26;;;;;;;11.82;6.85;;;9.80;99.90;;;;;;5060647;28;20184;-85
2020/12/17 06:59:15;;;;;;;9.07;6.95;;;9.70;99.90;;;;;;5057496;28;20181;-84
2020/12/17 07:01:42;;;;;;;8.88;6.25;;;9.70;99.90;;;;;;5063363;28;20578;-85
2020/12/17 07:04:08;;;;;;;8.75;6.53;;;9.70;99.90;;;;;;5075251;28;20292;-84
2020/12/17 07:06:35;;;;;;;11.43;7.70;;;9.70;99.90;;;;;;5075467;28;20643;-85
2020/12/17 07:09:01;;;;;;;13.23;8.40;;;9.70;99.90;;;;;;5059449;28;20289;-84
2020/12/17 07:11:44;;;;;;;9.25;7.25;;;9.70;99.90;;;;;;5075442;28;20187;-85
2020/12/17 07:14:18;;;;;;;10.25;8.07;;;9.60;99.90;;;;;;5056051;28;20203;-84
2020/12/17 07:16:55;;;;;;;11.57;7.88;;;9.60;99.90;;;;;;5067573;28;20654;-86
2020/12/17 07:19:24;;;;;;;9.57;7.90;;;9.60;99.90;;;;;;5067045;28;20215;-85
2020/12/17 07:21:59;;;;;;;16.30;9.63;;;9.60;99.90;;;;;;5062511;28;20209;-84
2020/12/17 07:24:30;;;;;;;11.40;7.75;;;9.50;99.90;;;;;;5063214;28;20193;-89
2020/12/17 07:27:04;;;;;;;14.13;9.52;;;9.50;99.90;;;;;;5069597;28;20192;-85
2020/12/17 07:29:44;;;;;;;13.60;10.15;;;9.40;99.90;;;;;;5075707;28;20250;-85
2020/12/17 07:32:25;;;;;;;11.40;9.93;;;9.50;99.90;;;;;;5065367;28;20202;-85
2020/12/17 07:34:52;;;;;;;11.30;9.35;;;9.40;99.90;;;;;;5070829;28;20188;-85
2020/12/17 07:37:39;;;;;;;10.52;9.43;;;9.40;99.90;;;;;;5072221;28;20551;-84
2020/12/17 07:40:16;;;;;;;12.23;9.40;;;9.40;99.90;;;;;;5062827;28;20180;-82
2020/12/17 07:42:55;;;;;;;14.02;9.48;;;9.40;99.90;;;;;;5064641;28;20539;-85
2020/12/17 07:45:46;;;;;;;14.00;9.77;;;9.40;99.90;;;;;;5075977;28;20278;-84
2020/12/17 07:48:46;;;;;;;9.90;8.85;;;9.30;99.90;;;;;;5072807;28;20184;-84
2020/12/17 07:51:35;;;;;;;11.05;9.00;;;9.30;99.90;;;;;;5074042;28;20285;-85
2020/12/17 07:54:04;;;;;;;11.07;9.48;;;9.30;99.90;;;;;;5060771;28;20191;-85
2020/12/17 07:56:30;;;;;;;12.80;10.13;;;9.30;99.90;;;;;;5055050;28;20188;-84
2020/12/17 07:59:01;;;;;;;15.73;11.23;;;9.30;99.90;;;;;;5068529;28;20226;-86
2020/12/17 08:01:28;;;;;;;11.15;9.73;;;9.30;99.90;;;;;;5076901;28;20560;-88
2020/12/17 08:03:54;;;;;;;12.57;9.57;;;9.30;99.90;;;;;;5069781;28;20227;-85
2020/12/17 08:06:22;;;;;;;11.68;9.13;;;9.20;99.90;;;;;;5064285;28;20195;-88
2020/12/17 08:08:52;;;;;;;15.73;10.02;;;9.30;99.90;;;;;;5072773;28;20257;-93
2020/12/17 08:11:18;;;;;;;13.70;8.95;;;9.30;99.90;;;;;;5055145;28;20532;-86
2020/12/17 08:13:45;;;;;;;13.50;8.93;;;9.20;99.90;;;;;;5056629;28;20184;-88
2020/12/17 08:16:12;;;;;;;10.60;9.35;;;9.20;99.90;;;;;;5067680;28;20196;-87
2020/12/17 08:18:38;;;;;;;9.85;8.82;;;9.20;99.90;;;;;;5055238;28;20196;-87
2020/12/17 08:21:07;;;;;;;11.50;9.60;;;9.20;99.90;;;;;;5060575;28;20191;-86
2020/12/17 08:23:34;;;;;;;10.18;9.18;;;9.30;99.90;;;;;;5074145;28;20179;-87
2020/12/17 08:26:01;;;;;;;12.18;9.05;;;9.20;99.90;;;;;;5056953;28;20241;-87
2020/12/17 08:28:36;;;;;;;13.93;9.70;;;9.20;99.90;;;;;;5054614;28;20214;-87
2020/12/17 08:31:08;;;;;;;11.40;8.02;;;9.20;99.90;;;;;;5064682;28;20222;-88
2020/12/17 08:33:40;;;;;;;13.52;7.55;;;9.20;99.90;;;;;;5059443;28;20192;-86
2020/12/17 08:36:07;;;;;;;10.07;8.50;;;9.20;99.90;;;;;;5072430;28;20195;-87
2020/12/17 08:38:35;;;;;;;9.20;7.63;;;9.20;99.90;;;;;;5064729;28;20184;-84
2020/12/17 08:41:05;;;;;;;9.05;8.15;;;9.20;99.90;;;;;;5058570;28;20188;-91
2020/12/17 08:43:42;;;;;;;12.35;8.20;;;9.10;99.90;;;;;;5061211;28;20270;-87
2020/12/17 08:46:13;;;;;;;9.57;7.90;;;9.10;99.90;;;;;;5056218;28;20195;-87
2020/12/17 08:48:41;;;;;;;9.15;8.13;;;9.10;99.90;;;;;;5058142;28;20246;-89
2020/12/17 08:51:11;;;;;;;8.35;7.43;;;9.10;99.90;;;;;;5051574;28;20218;-87
2020/12/17 08:53:41;;;;;;;9.73;7.90;;;9.10;99.90;;;;;;5066220;28;20225;-87
2020/12/17 08:56:12;;;;;;;7.88;6.57;;;9.10;99.90;;;;;;5073347;28;20646;-87
2020/12/17 08:58:51;;;;;;;11.38;6.90;;;8.80;99.90;;;;;;5073305;28;20647;-88
2020/12/17 09:01:26;;;;;;;14.88;6.68;;;9.10;99.90;;;;;;5059066;28;20216;-88
2020/12/17 09:03:54;;;;;;;10.88;7.35;;;9.10;99.90;;;;;;5061358;28;20175;-88
2020/12/17 09:06:25;;;;;;;8.27;6.45;;;9.10;99.90;;;;;;5058773;28;20192;-88
2020/12/17 09:08:51;;;;;;;7.97;6.15;;;9.10;99.90;;;;;;5055976;28;20666;-87
2020/12/17 09:11:31;;;;;;;10.23;5.97;;;9.10;99.90;;;;;;5070604;28;20229;-87
2020/12/17 09:14:00;;;;;;;8.90;6.40;;;9.10;99.90;;;;;;5063939;28;20183;-88
2020/12/17 09:16:28;;;;;;;8.35;5.82;;;9.10;99.90;;;;;;5058873;28;20191;-88
2020/12/17 09:18:56;;;;;;;8.35;5.82;;;9.10;99.90;;;;;;5072218;28;20194;-87
2020/12/17 09:21:23;;;;;;;6.50;4.75;;;9.20;99.90;;;;;;5073133;28;20215;-89
2020/12/17 09:23:59;;;;;;;6.80;4.72;;;9.20;99.90;;;;;;5072313;28;20647;-89
2020/12/17 09:26:26;;;;;;;5.75;3.95;;;9.30;99.90;;;;;;5067442;28;20195;-89
2020/12/17 09:28:55;;;;;;;6.97;4.82;;;9.30;99.90;;;;;;5056294;28;20196;-88
2020/12/17 09:31:28;;;;;;;5.95;5.10;;;9.40;99.90;;;;;;5066232;28;20191;-88
2020/12/17 09:34:07;;;;;;;5.07;3.90;;;9.40;99.90;;;;;;5056714;28;20716;-89
2020/12/17 09:36:33;;;;;;;4.85;3.65;;;9.50;99.90;;;;;;5061235;28;20543;-88
2020/12/17 09:39:01;;;;;;;5.40;3.20;;;9.50;99.90;;;;;;5071970;28;20191;-89
2020/12/17 09:41:28;;;;;;;6.32;4.00;;;9.60;99.90;;;;;;5070927;28;20215;-88
2020/12/17 09:43:54;;;;;;;8.00;3.90;;;9.60;99.90;;;;;;5076319;28;20238;-87
2020/12/17 09:46:21;;;;;;;4.30;3.45;;;9.60;99.90;;;;;;5068529;28;20270;-85
2020/12/17 09:48:47;;;;;;;5.82;3.55;;;9.70;99.90;;;;;;5080111;28;20206;-84
2020/12/17 09:51:20;;;;;;;4.65;3.30;;;9.80;99.90;;;;;;5069912;28;20215;-88
2020/12/17 09:53:46;;;;;;;4.22;3.00;;;9.80;99.90;;;;;;5079078;28;20202;-88
2020/12/17 09:56:16;;;;;;;15.00;4.20;;;9.90;99.90;;;;;;5071207;28;20255;-88
2020/12/17 09:58:43;;;;;;;16.40;3.95;;;10.00;99.90;;;;;;5073775;28;20195;-86
2020/12/17 10:01:10;;;;;;;3.28;2.75;;;10.00;99.90;;;;;;5067650;28;20695;-86
2020/12/17 10:03:37;;;;;;;4.28;2.35;;;10.10;99.90;;;;;;5058464;28;20196;-85
2020/12/17 10:06:03;;;;;;;4.57;2.30;;;10.10;99.90;;;;;;5058894;28;20211;-86
2020/12/17 10:08:31;;;;;;;4.32;3.15;;;10.20;99.90;;;;;;5076329;28;20233;-86
2020/12/17 10:10:57;;;;;;;4.72;2.30;;;10.10;99.90;;;;;;5081554;28;20219;-86
2020/12/17 10:13:23;;;;;;;3.05;1.90;;;10.20;99.90;;;;;;5081160;28;20187;-86
2020/12/17 10:15:49;;;;;;;3.70;2.35;;;10.20;99.90;;;;;;5081022;28;20187;-85
2020/12/17 10:18:16;;;;;;;3.90;3.00;;;10.10;99.90;;;;;;5068238;28;20184;-85
2020/12/17 10:20:42;;;;;;;4.45;2.22;;;10.10;99.90;;;;;;5059281;28;20176;-85
2020/12/17 10:23:09;;;;;;;6.85;2.97;;;10.10;99.90;;;;;;5060960;28;20198;-85
2020/12/17 10:25:36;;;;;;;4.30;1.75;;;10.10;99.90;;;;;;5060961;28;20237;-85
2020/12/17 10:28:02;;;;;;;6.35;2.45;;;10.10;99.90;;;;;;5060929;28;20187;-85
2020/12/17 10:30:28;;;;;;;3.30;1.80;;;10.00;99.90;;;;;;5058864;28;20583;-81
2020/12/17 10:32:56;;;;;;;3.13;2.00;;;10.00;99.90;;;;;;5057492;28;20184;-83
2020/12/17 10:35:23;;;;;;;4.45;1.95;;;10.00;99.90;;;;;;5058558;28;20184;-84
2020/12/17 10:37:49;;;;;;;2.80;2.10;;;10.00;99.90;;;;;;5076700;28;20191;-85
2020/12/17 10:40:15;;;;;;;3.28;2.15;;;10.00;99.90;;;;;;5076901;28;20191;-84
2020/12/17 10:42:42;;;;;;;3.40;1.90;;;10.00;99.90;;;;;;5076645;28;20524;-83
2020/12/17 10:45:10;;;;;;;4.97;2.40;;;10.00;99.90;;;;;;5076489;28;20195;-84
2020/12/17 10:47:37;;;;;;;4.45;1.85;;;10.00;99.90;;;;;;5057553;28;20176;-84
2020/12/17 10:50:04;;;;;;;5.07;2.03;;;10.00;99.90;;;;;;5058732;28;20282;-84
2020/12/17 10:52:30;;;;;;;3.45;1.60;;;10.00;99.90;;;;;;5058568;28;20184;-84
2020/12/17 10:54:56;;;;;;;3.10;2.10;;;10.00;99.90;;;;;;5065453;28;20553;-86
2020/12/17 10:57:23;;;;;;;3.03;1.60;;;9.90;99.90;;;;;;5066087;28;20231;-86
2020/12/17 10:59:50;;;;;;;3.83;2.03;;;9.90;99.90;;;;;;5075813;28;20183;-86
2020/12/17 11:02:16;;;;;;;4.13;1.85;;;9.90;99.90;;;;;;5062313;28;20226;-85
2020/12/17 11:04:43;;;;;;;5.20;2.53;;;9.90;99.90;;;;;;5066723;28;20188;-87
2020/12/17 11:07:09;;;;;;;3.63;2.22;;;10.00;99.90;;;;;;5071246;28;20271;-86
2020/12/17 11:09:36;;;;;;;3.58;2.10;;;10.10;99.90;;;;;;5056504;28;20219;-85
2020/12/17 11:12:02;;;;;;;3.40;1.85;;;10.20;99.90;;;;;;5065153;28;20187;-86
2020/12/17 11:14:28;;;;;;;3.25;1.58;;;10.20;99.90;;;;;;5071482;28;20664;-86
2020/12/17 11:16:55;;;;;;;2.47;1.42;;;10.10;99.90;;;;;;5074793;28;20184;-85
2020/12/17 11:19:22;;;;;;;3.15;1.70;;;10.10;99.90;;;;;;5065020;28;20192;-85
2020/12/17 11:21:48;;;;;;;6.22;2.38;;;10.10;99.90;;;;;;5057784;28;20265;-85
2020/12/17 11:24:14;;;;;;;4.78;2.13;;;10.30;99.90;;;;;;5075640;28;20194;-85
2020/12/17 11:26:42;;;;;;;5.18;2.63;;;10.50;99.90;;;;;;5064056;28;20242;-85
2020/12/17 11:29:09;;;;;;;3.95;1.88;;;10.60;99.90;;;;;;5057281;28;20242;-84
2020/12/17 11:31:35;;;;;;;3.25;1.70;;;10.50;99.90;;;;;;5056237;28;20659;-86
2020/12/17 11:34:02;;;;;;;5.72;1.90;;;10.60;99.90;;;;;;5056595;28;20203;-86
2020/12/17 11:36:29;;;;;;;7.85;2.42;;;10.70;99.90;;;;;;5067084;28;20226;-88
2020/12/17 11:38:55;;;;;;;4.40;2.10;;;10.90;99.90;;;;;;5055938;28;20188;-86
2020/12/17 11:41:22;;;;;;;3.88;2.05;;;11.20;99.90;;;;;;5061407;28;20192;-86
2020/12/17 11:43:48;;;;;;;4.32;1.50;;;11.20;99.90;;;;;;5066871;28;20640;-86
2020/12/17 11:46:18;;;;;;;3.58;1.65;;;11.10;99.90;;;;;;5060420;28;20179;-87
2020/12/17 11:48:44;;;;;;;3.72;2.13;;;11.00;99.90;;;;;;5075393;28;20191;-85
2020/12/17 11:51:13;;;;;;;2.42;1.70;;;11.00;99.90;;;;;;5070862;28;20222;-88
2020/12/17 11:53:39;;;;;;;3.35;1.90;;;11.20;99.90;;;;;;5073656;28;20187;-91
2020/12/17 11:56:05;;;;;;;3.65;2.67;;;11.30;99.90;;;;;;5075781;28;20193;-85
2020/12/17 11:58:32;;;;;;;4.72;1.95;;;11.20;99.90;;;;;;5075444;28;20184;-85
2020/12/17 12:00:58;;;;;;;7.97;2.50;;;11.20;99.90;;;;;;5075510;28;20223;-85
2020/12/17 12:03:24;;;;;;;7.18;2.80;;;11.00;99.90;;;;;;5060643;28;20246;-86
2020/12/17 12:05:51;;;;;;;3.10;1.63;;;10.80;99.90;;;;;;5055509;28;20184;-86
2020/12/17 12:08:18;;;;;;;3.72;2.05;;;10.70;99.90;;;;;;5068493;28;20207;-87
2020/12/17 12:10:44;;;;;;;3.22;2.05;;;10.80;99.90;;;;;;5062596;28;20222;-86
2020/12/17 12:13:11;;;;;;;4.35;1.98;;;10.80;99.90;;;;;;5055365;28;20192;-86
2020/12/17 12:15:38;;;;;;;4.18;2.00;;;10.70;99.90;;;;;;5055853;28;20192;-86
2020/12/17 12:18:04;;;;;;;3.85;1.90;;;10.60;99.90;;;;;;5071386;28;20524;-87
2020/12/17 12:20:30;;;;;;;5.85;1.65;;;10.60;99.90;;;;;;5064552;28;20544;-87
2020/12/17 12:22:58;;;;;;;3.00;1.90;;;10.60;99.90;;;;;;5073394;28;20198;-85
2020/12/17 12:25:26;;;;;;;4.38;1.98;;;10.60;99.90;;;;;;5058474;28;20246;-87
2020/12/17 12:27:53;;;;;;;7.13;2.15;;;10.50;99.90;;;;;;5055536;28;20648;-93
2020/12/17 12:30:19;;;;;;;2.70;1.60;;;10.50;99.90;;;;;;5068746;28;20574;-85
2020/12/17 12:32:45;;;;;;;2.50;1.85;;;10.50;99.90;;;;;;5074929;28;20184;-86
2020/12/17 12:35:12;;;;;;;3.75;2.15;;;10.50;99.90;;;;;;5064171;28;20183;-86
2020/12/17 12:37:39;;;;;;;4.78;2.00;;;10.60;99.90;;;;;;5071923;28;20187;-86
2020/12/17 12:40:06;;;;;;;3.67;2.00;;;10.80;99.90;;;;;;5056761;28;20210;-87
2020/12/17 12:42:33;;;;;;;3.38;1.80;;;10.90;99.90;;;;;;5066302;28;20241;-87
2020/12/17 12:44:59;;;;;;;6.07;2.03;;;10.80;99.90;;;;;;5074137;28;20187;-86
2020/12/17 12:47:26;;;;;;;7.30;2.90;;;10.70;99.90;;;;;;5073954;28;20184;-86
2020/12/17 12:49:53;;;;;;;3.55;2.03;;;10.70;99.90;;;;;;5074171;28;20207;-86
2020/12/17 12:52:19;;;;;;;5.45;1.45;;;10.50;99.90;;;;;;5066461;28;20548;-85
2020/12/17 12:54:45;;;;;;;6.82;2.58;;;10.50;99.90;;;;;;5057477;28;20180;-85
2020/12/17 12:57:12;;;;;;;6.00;1.90;;;10.40;99.90;;;;;;5069260;28;20270;-87
2020/12/17 12:59:39;;;;;;;4.72;2.08;;;10.40;99.90;;;;;;5065418;28;20650;-86
2020/12/17 13:02:06;;;;;;;9.75;2.40;;;10.40;99.90;;;;;;5071781;28;20702;-87
2020/12/17 13:04:32;;;;;;;7.70;2.40;;;10.50;99.90;;;;;;5071209;28;20192;-88
2020/12/17 13:06:58;;;;;;;4.15;2.45;;;10.40;99.90;;;;;;5068083;28;20867;-86